createdAt,value
2023-07-21T00:01:17.385Z,4.14
2023-07-21T00:03:44.354Z,4.23
2023-07-21T00:06:11.574Z,3.97
2023-07-21T00:08:39.063Z,3.79
2023-07-21T00:11:06.562Z,4.08
2023-07-21T00:13:37.277Z,3.93
2023-07-21T00:16:05.990Z,4.15
2023-07-21T00:18:34.698Z,3.72
2023-07-21T00:21:02.048Z,4.13
2023-07-21T00:23:30.136Z,4.32
2023-07-21T00:25:56.676Z,4.13
2023-07-21T00:28:24.019Z,4.00
2023-07-21T00:30:51.091Z,3.97
2023-07-21T00:33:18.740Z,4.36
2023-07-21T00:35:45.263Z,4.09
2023-07-21T00:38:11.992Z,4.23
2023-07-21T00:40:39.630Z,4.16
2023-07-21T00:43:09.840Z,4.15
2023-07-21T00:45:39.242Z,3.72
2023-07-21T00:48:10.906Z,3.93
2023-07-21T00:50:47.556Z,4.27
2023-07-21T00:53:15.034Z,4.18
2023-07-21T00:55:43.304Z,4.17
2023-07-21T00:58:11.593Z,4.17
2023-07-21T01:00:41.693Z,4.06
2023-07-21T01:03:12.265Z,4.22
2023-07-21T01:05:45.148Z,4.01
2023-07-21T01:08:14.836Z,4.03
2023-07-21T01:10:43.421Z,4.14
2023-07-21T01:13:12.445Z,4.02
2023-07-21T01:15:49.380Z,3.84
2023-07-21T01:18:19.789Z,4.11
2023-07-21T01:20:48.955Z,4.30
2023-07-21T01:23:38.426Z,4.06
2023-07-21T01:26:10.186Z,4.42
2023-07-21T01:28:42.069Z,4.22
2023-07-21T01:31:09.366Z,4.37
2023-07-21T01:33:38.387Z,4.40
2023-07-21T01:36:08.644Z,4.00
2023-07-21T01:38:38.117Z,4.34
2023-07-21T01:41:08.168Z,4.26
2023-07-21T01:43:35.973Z,4.18
2023-07-21T01:46:03.345Z,4.17
2023-07-21T01:48:29.977Z,4.32
2023-07-21T01:51:00.058Z,4.10
2023-07-21T01:53:29.839Z,4.16
2023-07-21T01:56:09.263Z,4.30
2023-07-21T01:58:44.320Z,4.42
2023-07-21T02:01:15.574Z,4.36
2023-07-21T02:03:43.282Z,4.63
2023-07-21T02:06:15.928Z,4.47
2023-07-21T02:08:42.875Z,4.56
2023-07-21T02:11:10.441Z,4.60
2023-07-21T02:13:37.132Z,4.64
2023-07-21T02:16:04.094Z,4.55
2023-07-21T02:18:34.486Z,4.72
2023-07-21T02:21:05.035Z,4.72
2023-07-21T02:23:32.592Z,4.69
2023-07-21T02:26:00.805Z,4.77
2023-07-21T02:28:27.921Z,4.87
2023-07-21T02:31:03.328Z,4.81
2023-07-21T02:33:31.833Z,4.55
2023-07-21T02:36:01.064Z,4.86
2023-07-21T02:38:28.817Z,4.67
2023-07-21T02:40:57.004Z,4.72
2023-07-21T02:43:24.715Z,4.55
2023-07-21T02:45:54.679Z,4.57
2023-07-21T02:48:22.811Z,4.86
2023-07-21T02:50:52.839Z,4.46
2023-07-21T02:53:21.601Z,4.66
2023-07-21T02:55:49.312Z,4.52
2023-07-21T02:58:18.799Z,4.78
2023-07-21T03:00:46.422Z,4.64
2023-07-21T03:03:16.693Z,4.78
2023-07-21T03:05:43.872Z,4.81
2023-07-21T03:08:11.095Z,5.09
2023-07-21T03:10:37.626Z,4.48
2023-07-21T03:13:04.207Z,4.51
2023-07-21T03:15:30.729Z,4.80
2023-07-21T03:17:57.349Z,5.06
2023-07-21T03:20:24.070Z,4.48
2023-07-21T03:22:50.626Z,4.86
2023-07-21T03:25:17.208Z,4.72
2023-07-21T03:27:46.109Z,4.49
2023-07-21T03:30:12.977Z,4.84
2023-07-21T03:32:39.676Z,4.89
2023-07-21T03:35:07.039Z,4.84
2023-07-21T03:37:35.846Z,5.03
2023-07-21T03:40:07.627Z,5.00
2023-07-21T03:42:36.256Z,4.73
2023-07-21T03:45:05.841Z,4.72
2023-07-21T03:47:33.490Z,4.51
2023-07-21T03:50:00.627Z,4.73
2023-07-21T03:52:28.265Z,4.62
2023-07-21T03:54:56.353Z,4.87
2023-07-21T03:57:23.861Z,4.56
2023-07-21T03:59:50.815Z,4.42
2023-07-21T04:02:18.618Z,5.15
2023-07-21T04:04:46.793Z,5.00
2023-07-21T04:07:14.208Z,4.65
2023-07-21T04:09:41.241Z,5.08
2023-07-21T04:12:08.695Z,4.87
2023-07-21T04:14:35.782Z,4.76
2023-07-21T04:17:02.312Z,5.22
2023-07-21T04:19:28.968Z,5.41
2023-07-21T04:21:55.745Z,5.20
2023-07-21T04:24:22.329Z,5.03
2023-07-21T04:26:48.878Z,5.24
2023-07-21T04:29:29.896Z,5.28
2023-07-21T04:32:01.004Z,5.16
2023-07-21T04:34:27.685Z,5.44
2023-07-21T04:36:54.162Z,5.06
2023-07-21T04:39:20.629Z,5.00
2023-07-21T04:41:47.135Z,5.23
2023-07-21T04:44:13.621Z,5.33
2023-07-21T04:46:40.214Z,5.17
2023-07-21T04:49:08.602Z,5.36
2023-07-21T04:51:35.268Z,5.51
2023-07-21T04:54:02.175Z,5.51
2023-07-21T04:56:29.864Z,5.64
2023-07-21T04:58:56.475Z,5.31
2023-07-21T05:01:23.137Z,5.35
2023-07-21T05:03:49.777Z,5.00
2023-07-21T05:06:17.985Z,5.25
2023-07-21T05:08:44.936Z,5.18
2023-07-21T05:11:11.644Z,5.15
2023-07-21T05:13:38.887Z,5.27
2023-07-21T05:16:05.524Z,5.03
2023-07-21T05:18:32.377Z,4.83
2023-07-21T05:20:59.585Z,5.09
2023-07-21T05:23:26.081Z,5.03
2023-07-21T05:26:02.764Z,5.19
2023-07-21T05:28:30.357Z,5.17
2023-07-21T05:30:58.148Z,5.36
2023-07-21T05:33:24.882Z,5.52
2023-07-21T05:35:51.378Z,5.12
2023-07-21T05:38:17.914Z,5.26
2023-07-21T05:40:44.610Z,5.32
2023-07-21T05:43:11.140Z,4.93
2023-07-21T05:45:39.659Z,5.08
2023-07-21T05:48:06.736Z,5.37
2023-07-21T05:50:37.487Z,4.88
2023-07-21T05:53:04.577Z,5.05
2023-07-21T05:55:31.108Z,4.86
2023-07-21T05:57:57.651Z,4.84
2023-07-21T06:00:24.243Z,5.01
2023-07-21T06:02:50.827Z,4.95
2023-07-21T06:05:17.597Z,4.93
2023-07-21T06:07:46.630Z,4.62
2023-07-21T06:10:13.528Z,5.28
2023-07-21T06:12:40.465Z,5.25
2023-07-21T06:15:09.217Z,4.84
2023-07-21T06:17:35.783Z,5.10
2023-07-21T06:20:02.610Z,4.95
2023-07-21T06:22:29.732Z,4.67
2023-07-21T06:24:56.435Z,4.92
2023-07-21T06:27:23.216Z,5.13
2023-07-21T06:29:49.750Z,5.52
2023-07-21T06:32:16.648Z,5.10
2023-07-21T06:34:43.175Z,5.19
2023-07-21T06:37:09.669Z,5.31
2023-07-21T06:39:36.369Z,5.56
2023-07-21T06:42:03.086Z,5.27
2023-07-21T06:44:32.584Z,5.11
2023-07-21T06:46:59.057Z,5.48
2023-07-21T06:49:25.573Z,5.42
2023-07-21T06:51:52.084Z,5.11
2023-07-21T06:54:18.748Z,5.31
2023-07-21T06:56:45.449Z,5.60
2023-07-21T06:59:12.497Z,5.29
2023-07-21T07:01:39.027Z,5.35
2023-07-21T07:04:05.560Z,5.53
2023-07-21T07:06:32.140Z,5.44
2023-07-21T07:08:58.721Z,5.25
2023-07-21T07:11:25.942Z,5.51
2023-07-21T07:13:52.705Z,5.45
2023-07-21T07:16:19.334Z,5.66
2023-07-21T07:18:45.994Z,5.47
2023-07-21T07:21:13.633Z,5.41
2023-07-21T07:23:40.116Z,5.64
2023-07-21T07:26:06.705Z,5.68
2023-07-21T07:28:33.452Z,5.50
2023-07-21T07:31:05.528Z,5.61
2023-07-21T07:33:33.779Z,5.44
2023-07-21T07:36:01.028Z,5.45
2023-07-21T07:38:31.665Z,5.29
2023-07-21T07:41:04.739Z,5.52
2023-07-21T07:43:33.300Z,5.37
2023-07-21T07:46:00.740Z,5.44
2023-07-21T07:48:27.928Z,5.08
2023-07-21T07:50:56.183Z,5.42
2023-07-21T07:53:22.876Z,5.61
2023-07-21T07:55:49.904Z,5.37
2023-07-21T07:58:16.454Z,5.47
2023-07-21T08:00:44.287Z,5.31
2023-07-21T08:03:12.084Z,5.38
2023-07-21T08:05:40.867Z,5.30
2023-07-21T08:08:13.600Z,5.37
2023-07-21T08:10:42.228Z,5.33
2023-07-21T08:13:09.609Z,5.80
2023-07-21T08:15:36.611Z,5.51
2023-07-21T08:18:04.168Z,5.60
2023-07-21T08:20:31.009Z,5.66
2023-07-21T08:22:57.580Z,5.52
2023-07-21T08:25:24.333Z,5.80
2023-07-21T08:27:53.947Z,5.27
2023-07-21T08:30:21.150Z,5.28
2023-07-21T08:32:47.811Z,5.45
2023-07-21T08:35:14.494Z,5.43
2023-07-21T08:37:41.089Z,5.33
2023-07-21T08:40:09.437Z,5.43
2023-07-21T08:42:38.114Z,5.67
2023-07-21T08:45:06.703Z,5.43
2023-07-21T08:47:33.620Z,5.77
2023-07-21T08:50:00.725Z,5.22
2023-07-21T08:52:27.521Z,5.13
2023-07-21T08:54:54.605Z,5.32
2023-07-21T08:57:21.683Z,5.69
2023-07-21T08:59:48.366Z,5.78
2023-07-21T09:02:14.888Z,5.59
2023-07-21T09:04:45.367Z,5.45
2023-07-21T09:07:12.471Z,5.68
2023-07-21T09:09:39.189Z,5.44
2023-07-21T09:12:10.249Z,5.70
2023-07-21T09:14:41.748Z,5.27
2023-07-21T09:17:12.485Z,5.47
2023-07-21T09:19:44.238Z,6.01
2023-07-21T09:22:12.704Z,5.57
2023-07-21T09:24:56.161Z,5.82
2023-07-21T09:27:22.797Z,5.84
2023-07-21T09:29:49.289Z,5.82
2023-07-21T09:32:20.701Z,5.64
2023-07-21T09:35:00.185Z,5.63
2023-07-21T09:37:30.936Z,5.46
2023-07-21T09:40:01.097Z,5.24
2023-07-21T09:42:30.256Z,5.40
2023-07-21T09:44:58.332Z,5.24
2023-07-21T09:47:26.106Z,5.49
2023-07-21T09:49:56.014Z,5.55
2023-07-21T09:52:24.378Z,5.56
2023-07-21T09:55:10.536Z,5.95
2023-07-21T09:57:44.876Z,5.32
2023-07-21T10:00:15.620Z,5.62
2023-07-21T10:02:49.220Z,5.89
2023-07-21T10:05:16.104Z,5.65
2023-07-21T10:07:47.537Z,5.63
2023-07-21T10:10:16.580Z,5.53
2023-07-21T10:12:54.809Z,5.78
2023-07-21T10:15:33.047Z,5.42
2023-07-21T10:18:04.397Z,5.14
2023-07-21T10:20:50.899Z,5.28
2023-07-21T10:23:31.722Z,5.88
2023-07-21T10:26:14.335Z,5.60
2023-07-21T10:28:45.014Z,5.40
2023-07-21T10:31:37.295Z,5.74
2023-07-21T10:34:24.782Z,5.44
2023-07-21T10:36:52.335Z,5.43
2023-07-21T10:39:23.409Z,5.30
2023-07-21T10:42:01.567Z,5.08
2023-07-21T10:44:49.004Z,5.05
2023-07-21T10:47:18.885Z,5.71
2023-07-21T10:49:48.858Z,5.00
2023-07-21T10:52:16.256Z,5.04
2023-07-21T10:54:42.867Z,5.03
2023-07-21T10:57:10.106Z,5.30
2023-07-21T10:59:38.727Z,5.11
2023-07-21T11:02:08.391Z,4.82
2023-07-21T11:04:36.769Z,5.09
2023-07-21T11:07:04.149Z,4.80
2023-07-21T11:09:40.024Z,4.75
2023-07-21T11:12:07.302Z,4.75
2023-07-21T11:14:34.048Z,4.73
2023-07-21T11:17:05.241Z,5.24
2023-07-21T11:19:35.224Z,5.42
2023-07-21T11:22:05.013Z,4.90
2023-07-21T11:24:34.110Z,4.84
2023-07-21T11:27:10.187Z,4.78
2023-07-21T11:29:44.727Z,4.58
2023-07-21T11:32:27.648Z,4.75
2023-07-21T11:34:59.975Z,4.70
2023-07-21T11:37:39.211Z,4.59
2023-07-21T11:40:14.689Z,4.59
2023-07-21T11:42:45.696Z,4.71
2023-07-21T11:45:34.872Z,4.48
2023-07-21T11:48:15.266Z,4.63
2023-07-21T11:50:51.832Z,4.48
2023-07-21T11:53:20.307Z,4.55
2023-07-21T11:55:46.812Z,4.59
2023-07-21T11:58:13.333Z,4.48
2023-07-21T12:00:40.814Z,4.47
2023-07-21T12:03:07.865Z,4.87
2023-07-21T12:05:34.563Z,4.91
2023-07-21T12:08:01.406Z,4.49
2023-07-21T12:10:28.077Z,4.44
2023-07-21T12:12:54.650Z,4.51
2023-07-21T12:15:22.711Z,4.49
2023-07-21T12:17:49.392Z,4.73
2023-07-21T12:20:18.328Z,4.84
2023-07-21T12:22:45.013Z,5.12
2023-07-21T12:25:11.642Z,5.30
2023-07-21T12:27:38.275Z,5.17
2023-07-21T12:30:09.624Z,5.15
2023-07-21T12:32:36.749Z,4.84
2023-07-21T12:35:06.842Z,4.22
2023-07-21T12:37:34.182Z,3.40
2023-07-21T12:40:01.482Z,2.40
2023-07-21T12:42:30.171Z,2.14
2023-07-21T12:44:56.673Z,2.13
2023-07-21T12:47:23.475Z,2.25
2023-07-21T12:49:50.155Z,1.97
2023-07-21T12:52:16.683Z,2.45
2023-07-21T12:54:44.785Z,2.51
2023-07-21T12:57:12.601Z,2.38
2023-07-21T12:59:39.314Z,2.61
2023-07-21T13:02:08.037Z,2.63
2023-07-21T13:04:36.155Z,2.67
2023-07-21T13:07:11.363Z,2.85
2023-07-21T13:09:39.158Z,2.41
2023-07-21T13:12:08.985Z,1.95
2023-07-21T13:14:40.986Z,1.61
2023-07-21T13:17:11.366Z,1.58
2023-07-21T13:19:41.539Z,1.82
2023-07-21T13:22:08.372Z,1.67
2023-07-21T13:24:38.052Z,1.63
2023-07-21T13:27:05.428Z,1.66
2023-07-21T13:29:32.127Z,1.84
2023-07-21T13:31:58.618Z,1.86
2023-07-21T13:34:26.720Z,1.95
2023-07-21T13:36:54.553Z,2.12
2023-07-21T13:39:21.163Z,2.04
2023-07-21T13:41:48.817Z,2.00
2023-07-21T13:44:16.325Z,2.23
2023-07-21T13:46:42.840Z,2.14
2023-07-21T13:49:09.539Z,1.80
2023-07-21T13:51:36.227Z,1.83
2023-07-21T13:54:02.869Z,2.08
2023-07-21T13:56:29.836Z,1.85
2023-07-21T13:58:56.739Z,1.83
2023-07-21T14:01:23.635Z,2.03
2023-07-21T14:03:50.227Z,2.51
2023-07-21T14:06:18.093Z,2.50
2023-07-21T14:08:45.632Z,1.97
2023-07-21T14:11:12.921Z,2.14
2023-07-21T14:13:39.448Z,1.99
2023-07-21T14:16:06.514Z,1.95
2023-07-21T14:18:33.225Z,2.18
2023-07-21T14:21:00.126Z,2.02
2023-07-21T14:23:26.660Z,2.01
2023-07-21T14:25:53.556Z,1.88
2023-07-21T14:28:20.141Z,2.16
2023-07-21T14:30:46.692Z,2.18
2023-07-21T14:33:13.313Z,2.44
2023-07-21T14:35:40.186Z,2.39
2023-07-21T14:38:06.656Z,2.16
2023-07-21T14:40:33.276Z,2.00
2023-07-21T14:42:59.883Z,2.04
2023-07-21T14:45:26.470Z,1.97
2023-07-21T14:47:52.975Z,2.09
2023-07-21T14:50:20.057Z,2.45
2023-07-21T14:52:46.751Z,8.86
2023-07-21T14:55:13.842Z,4.77
2023-07-21T14:57:40.723Z,2.59
2023-07-21T15:00:14.223Z,2.15
2023-07-21T15:02:40.990Z,2.30
2023-07-21T15:05:07.969Z,2.55
2023-07-21T15:07:34.572Z,2.49
2023-07-21T15:10:01.174Z,2.66
2023-07-21T15:12:27.820Z,2.68
2023-07-21T15:14:54.313Z,2.27
2023-07-21T15:17:20.807Z,2.20
2023-07-21T15:19:47.609Z,2.45
2023-07-21T15:22:14.149Z,2.33
2023-07-21T15:24:42.256Z,2.24
2023-07-21T15:27:11.060Z,2.39
2023-07-21T15:29:37.609Z,2.54
2023-07-21T15:32:04.753Z,2.22
2023-07-21T15:34:31.329Z,3.27
2023-07-21T15:36:58.531Z,2.65
2023-07-21T15:39:25.188Z,6.70
2023-07-21T15:41:51.696Z,3.03
2023-07-21T15:44:18.604Z,2.70
2023-07-21T15:46:45.335Z,2.76
2023-07-21T15:49:12.035Z,4.50
2023-07-21T15:51:38.566Z,3.20
2023-07-21T15:54:16.817Z,2.91
2023-07-21T15:56:45.234Z,2.71
2023-07-21T15:59:11.760Z,2.70
2023-07-21T16:01:38.457Z,2.88
2023-07-21T16:04:05.970Z,2.95
2023-07-21T16:06:32.594Z,2.89
2023-07-21T16:08:59.107Z,3.27
2023-07-21T16:11:25.850Z,2.77
2023-07-21T16:13:52.834Z,2.82
2023-07-21T16:16:19.569Z,3.17
2023-07-21T16:18:47.725Z,2.78
2023-07-21T16:21:14.225Z,2.97
2023-07-21T16:23:40.769Z,3.17
2023-07-21T16:26:19.328Z,3.10
2023-07-21T16:28:46.516Z,3.13
2023-07-21T16:31:13.157Z,3.29
2023-07-21T16:33:39.736Z,3.17
2023-07-21T16:36:06.449Z,3.30
2023-07-21T16:38:33.373Z,3.27
2023-07-21T16:41:04.366Z,3.24
2023-07-21T16:43:31.120Z,3.16
2023-07-21T16:45:57.916Z,3.21
2023-07-21T16:48:24.550Z,3.45
2023-07-21T16:50:52.269Z,3.00
2023-07-21T16:53:19.357Z,3.31
2023-07-21T16:55:47.059Z,3.19
2023-07-21T16:58:14.089Z,3.29
2023-07-21T17:00:40.681Z,3.11
2023-07-21T17:03:07.360Z,3.20
2023-07-21T17:05:35.917Z,3.34
2023-07-21T17:08:03.943Z,3.29
2023-07-21T17:10:30.635Z,3.10
2023-07-21T17:12:57.234Z,3.05
2023-07-21T17:15:23.743Z,3.10
2023-07-21T17:17:50.286Z,3.05
2023-07-21T17:20:16.963Z,3.09
2023-07-21T17:22:47.185Z,2.87
2023-07-21T17:25:14.233Z,2.83
2023-07-21T17:27:40.716Z,3.13
2023-07-21T17:30:08.233Z,3.23
2023-07-21T17:32:34.859Z,3.33
2023-07-21T17:35:01.466Z,3.90
2023-07-21T17:37:29.044Z,3.61
2023-07-21T17:39:55.882Z,3.65
2023-07-21T17:42:22.514Z,3.94
2023-07-21T17:44:49.026Z,4.23
2023-07-21T17:47:15.583Z,4.06
2023-07-21T17:49:42.112Z,4.25
2023-07-21T17:52:08.845Z,4.34
2023-07-21T17:54:35.433Z,4.60
2023-07-21T17:57:02.554Z,4.68
2023-07-21T17:59:29.113Z,4.88
2023-07-21T18:01:55.841Z,4.43
2023-07-21T18:04:22.320Z,4.61
2023-07-21T18:06:48.831Z,4.51
2023-07-21T18:09:15.511Z,4.67
2023-07-21T18:11:42.119Z,4.64
2023-07-21T18:14:08.742Z,4.87
2023-07-21T18:16:35.354Z,4.56
2023-07-21T18:19:02.075Z,4.60
2023-07-21T18:21:28.860Z,4.76
2023-07-21T18:23:55.587Z,4.53
2023-07-21T18:26:25.433Z,4.72
2023-07-21T18:28:52.221Z,5.02
2023-07-21T18:31:19.130Z,5.01
2023-07-21T18:33:46.245Z,4.72
2023-07-21T18:36:16.007Z,5.39
2023-07-21T18:38:43.983Z,5.02
2023-07-21T18:41:10.714Z,5.21
2023-07-21T18:43:37.266Z,5.19
2023-07-21T18:46:04.171Z,5.03
2023-07-21T18:48:31.018Z,4.91
2023-07-21T18:50:59.334Z,4.87
2023-07-21T18:53:26.718Z,5.01
2023-07-21T18:55:53.727Z,5.06
2023-07-21T18:58:20.513Z,4.87
2023-07-21T19:00:47.075Z,5.15
2023-07-21T19:03:13.628Z,5.27
2023-07-21T19:05:40.832Z,5.42
2023-07-21T19:08:07.871Z,5.24
2023-07-21T19:10:34.420Z,5.29
2023-07-21T19:13:01.032Z,5.47
2023-07-21T19:15:27.724Z,5.16
2023-07-21T19:17:54.401Z,5.12
2023-07-21T19:20:21.111Z,5.52
2023-07-21T19:22:47.629Z,5.53
2023-07-21T19:25:14.225Z,5.46
2023-07-21T19:27:40.799Z,5.51
2023-07-21T19:30:09.033Z,5.43
2023-07-21T19:32:35.810Z,5.48
2023-07-21T19:35:04.370Z,5.37
2023-07-21T19:37:30.870Z,5.30
2023-07-21T19:39:57.377Z,5.16
2023-07-21T19:42:24.217Z,5.33
2023-07-21T19:44:50.695Z,5.25
2023-07-21T19:47:17.243Z,5.46
2023-07-21T19:49:43.879Z,5.38
2023-07-21T19:52:10.381Z,5.56
2023-07-21T19:54:36.888Z,5.55
2023-07-21T19:57:03.686Z,5.58
2023-07-21T19:59:30.300Z,5.37
2023-07-21T20:01:57.629Z,5.47
2023-07-21T20:04:24.338Z,5.24
2023-07-21T20:06:50.911Z,5.61
2023-07-21T20:09:17.390Z,5.77
2023-07-21T20:11:43.907Z,5.31
2023-07-21T20:14:10.422Z,5.22
2023-07-21T20:16:36.961Z,5.75
2023-07-21T20:19:03.666Z,5.58
2023-07-21T20:21:30.326Z,5.71
2023-07-21T20:23:56.817Z,5.76
2023-07-21T20:26:23.559Z,5.78
2023-07-21T20:28:50.142Z,5.75
2023-07-21T20:31:16.815Z,5.38
2023-07-21T20:33:44.647Z,5.84
2023-07-21T20:36:12.411Z,5.85
2023-07-21T20:38:38.891Z,5.80
2023-07-21T20:41:09.523Z,5.73
2023-07-21T20:43:37.130Z,5.75
2023-07-21T20:46:03.642Z,5.92
2023-07-21T20:48:30.335Z,5.74
2023-07-21T20:50:58.205Z,6.17
2023-07-21T20:53:26.424Z,5.77
2023-07-21T20:55:55.241Z,5.98
2023-07-21T20:58:23.004Z,6.17
2023-07-21T21:00:57.990Z,6.16
2023-07-21T21:03:24.814Z,5.83
2023-07-21T21:06:01.452Z,5.80
2023-07-21T21:08:28.462Z,5.90
2023-07-21T21:10:55.123Z,5.94
2023-07-21T21:13:23.324Z,5.89
2023-07-21T21:15:52.971Z,6.26
2023-07-21T21:18:20.296Z,6.05
2023-07-21T21:20:47.038Z,5.74
2023-07-21T21:23:14.440Z,6.10
2023-07-21T21:25:41.267Z,6.35
2023-07-21T21:28:08.766Z,6.16
2023-07-21T21:30:35.858Z,6.01
2023-07-21T21:33:02.882Z,5.59
2023-07-21T21:35:29.445Z,6.14
2023-07-21T21:37:55.972Z,5.87
2023-07-21T21:40:22.628Z,6.26
2023-07-21T21:42:49.097Z,6.07
2023-07-21T21:45:16.772Z,5.92
2023-07-21T21:47:43.612Z,6.10
2023-07-21T21:50:10.262Z,6.16
2023-07-21T21:52:36.897Z,5.98
2023-07-21T21:55:04.303Z,5.91
2023-07-21T21:57:31.670Z,5.92
2023-07-21T21:59:58.154Z,6.03
2023-07-21T22:02:24.844Z,6.34
2023-07-21T22:04:51.570Z,7.09
2023-07-21T22:07:18.104Z,7.73
2023-07-21T22:09:44.600Z,9.55
2023-07-21T22:12:12.542Z,10.04
2023-07-21T22:14:54.472Z,15.16
2023-07-21T22:17:23.410Z,11.39
2023-07-21T22:20:03.674Z,8.02
2023-07-21T22:22:36.035Z,7.74
2023-07-21T22:25:03.180Z,7.19
2023-07-21T22:27:29.650Z,6.77
2023-07-21T22:29:56.250Z,6.95
2023-07-21T22:32:22.999Z,7.36
2023-07-21T22:34:49.594Z,7.48
2023-07-21T22:37:16.693Z,7.52
2023-07-21T22:39:43.175Z,7.61
2023-07-21T22:42:11.097Z,6.94
2023-07-21T22:44:37.812Z,7.20
2023-07-21T22:47:04.774Z,7.17
2023-07-21T22:49:31.323Z,7.12
2023-07-21T22:51:57.832Z,6.29
2023-07-21T22:54:24.369Z,6.66
2023-07-21T22:56:50.929Z,6.83
2023-07-21T22:59:17.626Z,7.28
2023-07-21T23:01:44.263Z,7.78
2023-07-21T23:04:10.802Z,9.14
2023-07-21T23:06:37.891Z,10.02
2023-07-21T23:09:04.424Z,7.35
2023-07-21T23:11:30.954Z,6.89
2023-07-21T23:13:57.535Z,7.28
2023-07-21T23:16:24.211Z,7.51
2023-07-21T23:18:51.037Z,7.29
2023-07-21T23:21:17.537Z,7.49
2023-07-21T23:23:44.408Z,8.19
2023-07-21T23:26:10.885Z,8.99
2023-07-21T23:28:37.374Z,9.83
2023-07-21T23:31:04.830Z,9.20
2023-07-21T23:33:32.561Z,8.23
2023-07-21T23:35:59.266Z,7.24
2023-07-21T23:38:26.422Z,8.56
2023-07-21T23:40:53.548Z,7.37
2023-07-21T23:43:20.057Z,6.67
2023-07-21T23:45:49.480Z,6.87
2023-07-21T23:48:18.944Z,6.45
2023-07-21T23:50:45.667Z,7.02
2023-07-21T23:53:12.254Z,6.86
2023-07-21T23:55:38.767Z,6.96
2023-07-21T23:58:05.423Z,6.83
